Terminal Aerodrome Forecast
Issued by NWS Shreveport, LA

Home | Current Version | Previous Version | Text Only | Print | Product List | Glossary On
Versions: 1 2 3 4 5 6 7 8 9 10 11 12 13 14 15 16 17 18 19 20 21 22 23 24 25 26 27 28 29 30 31 32 33 34 35
000
FTUS44 KSHV 191640 AAV
TAFELD
TAF AMD
KELD 191640Z 1917/2012 17008KT P6SM BKN015
     FM191800 20007KT P6SM BKN025
     FM192000 22005KT P6SM BKN035
     FM200000 11003KT P6SM OVC060
     FM200600 00000KT P6SM OVC050=

USA.gov is the U.S. government's official web portal to all federal, state and local government web resources and services.